PWSweather.com
Personal Weather Stations
Station Observations
LOBIOS
Galicia, LobiosES

GaliciaLobiosES

Lat: 41.895, Lon: -8.091667

Elevation: 1597

Station Type: Automática/Davis Vantage Pro2 Plus

www.meteolobios.es

High Low Average
Temperature 47.9°F8.8°C 37.3°F2.9°C 42.5°F5.8°C
Dew Point 41.7°F5.4°C 35.7°F2.1°C 38.1°F3.4°C
Winds 16.1 mph 25.9 kmh Calm Calm 3.0 mph E4.8 kmh E
Wind Gusts 23.0 mph37.0 kmh -- 5.0 mph8.0 kmh
Humidity 95% 73% 85%
Pressure 30.59 in1035.9 mb 30.31 in1026.4 mb -
Precipitation 0.03 in0.8 mm - -
Hour Temp Dew Point Humidity Winds Wind Gusts Pressure Precip Precip Rate Daily Precip Total
12:00 AM 38.4°F3.6°C 36.6°F2.6°C 93% Calm Calm -- 30.31 in1026.4 mb - 0.00 in0.0 mm 0.00 in0.0 mm
12:10 AM 38.3°F3.5°C 36.5°F2.5°C 93% Calm Calm -- 30.31 in1026.4 mb - 0.00 in0.0 mm 0.00 in0.0 mm
12:20 AM 38.4°F3.6°C 36.6°F2.6°C 93% 2.3 mph N3.7 kmh N 4.6 mph7.4 kmh 30.31 in1026.4 mb - 0.00 in0.0 mm 0.00 in0.0 mm
12:30 AM 38.2°F3.4°C 36.4°F2.4°C 93% Calm Calm -- 30.32 in1026.8 mb - 0.00 in0.0 mm 0.00 in0.0 mm
12:40 AM 38.1°F3.4°C 36.2°F2.3°C 93% 4.6 mph SW7.4 kmh SW 5.8 mph9.3 kmh 30.32 in1026.8 mb - 0.00 in0.0 mm 0.00 in0.0 mm
12:50 AM 37.9°F3.3°C 36.1°F2.3°C 93% 4.6 mph SW7.4 kmh SW 4.6 mph7.4 kmh 30.32 in1026.8 mb - 0.00 in0.0 mm 0.00 in0.0 mm
01:00 AM 37.9°F3.3°C 36.3°F2.4°C 94% 4.6 mph SW7.4 kmh SW 4.6 mph7.4 kmh 30.32 in1026.8 mb - 0.00 in0.0 mm 0.00 in0.0 mm
01:10 AM 37.8°F3.2°C 36.2°F2.3°C 94% Calm Calm -- 30.32 in1026.8 mb - 0.00 in0.0 mm 0.00 in0.0 mm
01:20 AM 37.5°F3.1°C 35.7°F2.1°C 93% Calm Calm -- 30.32 in1026.8 mb - 0.00 in0.0 mm 0.00 in0.0 mm
01:30 AM 37.3°F2.9°C 35.7°F2.1°C 94% 4.6 mph SW7.4 kmh SW 4.6 mph7.4 kmh 30.32 in1026.8 mb - 0.00 in0.0 mm 0.00 in0.0 mm
01:40 AM 37.3°F2.9°C 35.7°F2.1°C 94% 1.1 mph SW1.8 kmh SW 2.3 mph3.7 kmh 30.32 in1026.8 mb - 0.00 in0.0 mm 0.00 in0.0 mm
01:50 AM 37.3°F2.9°C 35.7°F2.1°C 94% Calm Calm -- 30.32 in1026.8 mb - 0.00 in0.0 mm 0.00 in0.0 mm
02:00 AM 37.5°F3.1°C 35.9°F2.2°C 94% Calm Calm -- 30.33 in1027.1 mb - 0.00 in0.0 mm 0.00 in0.0 mm
02:10 AM 37.7°F3.2°C 36.1°F2.3°C 94% Calm Calm -- 30.33 in1027.1 mb - 0.00 in0.0 mm 0.00 in0.0 mm
02:20 AM 37.7°F3.2°C 36.1°F2.3°C 94% Calm Calm -- 30.33 in1027.1 mb - 0.00 in0.0 mm 0.00 in0.0 mm
02:30 AM 37.7°F3.2°C 36.1°F2.3°C 94% 1.1 mph WNW1.8 kmh WNW 4.6 mph7.4 kmh 30.34 in1027.4 mb - 0.00 in0.0 mm 0.00 in0.0 mm
02:40 AM 37.7°F3.2°C 36.1°F2.3°C 94% 3.5 mph WNW5.6 kmh WNW 5.8 mph9.3 kmh 30.33 in1027.1 mb - 0.00 in0.0 mm 0.00 in0.0 mm
02:50 AM 37.9°F3.3°C 36.3°F2.4°C 94% Calm Calm -- 30.34 in1027.4 mb - 0.00 in0.0 mm 0.00 in0.0 mm
03:00 AM 37.8°F3.2°C 36.2°F2.3°C 94% Calm Calm -- 30.35 in1027.8 mb - 0.00 in0.0 mm 0.00 in0.0 mm
03:10 AM 37.8°F3.2°C 36.5°F2.5°C 95% 1.1 mph NE1.8 kmh NE 1.1 mph1.8 kmh 30.35 in1027.8 mb - 0.00 in0.0 mm 0.00 in0.0 mm
03:20 AM 37.8°F3.2°C 36.5°F2.5°C 95% Calm Calm 2.3 mph3.7 kmh 30.35 in1027.8 mb - 0.00 in0.0 mm 0.00 in0.0 mm
03:30 AM 37.9°F3.3°C 36.6°F2.6°C 95% 1.1 mph N1.8 kmh N 2.3 mph3.7 kmh 30.35 in1027.8 mb - 0.00 in0.0 mm 0.00 in0.0 mm
03:40 AM 38.4°F3.6°C 37.1°F2.8°C 95% 6.9 mph NE11.1 kmh NE 6.9 mph11.1 kmh 30.36 in1028.1 mb - 0.00 in0.0 mm 0.00 in0.0 mm
03:50 AM 38.9°F3.8°C 37.6°F3.1°C 95% 6.9 mph NNE11.1 kmh NNE 6.9 mph11.1 kmh 30.36 in1028.1 mb - 0.00 in0.0 mm 0.00 in0.0 mm
04:00 AM 40.0°F4.4°C 38.7°F3.7°C 95% 8.1 mph NE13.0 kmh NE 9.2 mph14.8 kmh 30.36 in1028.1 mb - 0.00 in0.0 mm 0.00 in0.0 mm
04:10 AM 40.0°F4.4°C 38.1°F3.4°C 93% 8.1 mph NNE13.0 kmh NNE 10.4 mph16.7 kmh 30.36 in1028.1 mb - 0.00 in0.0 mm 0.00 in0.0 mm
04:20 AM 39.8°F4.3°C 37.9°F3.3°C 93% 6.9 mph NE11.1 kmh NE 8.1 mph13.0 kmh 30.36 in1028.1 mb - 0.00 in0.0 mm 0.00 in0.0 mm
04:30 AM 39.7°F4.3°C 37.6°F3.1°C 92% 6.9 mph NE11.1 kmh NE 8.1 mph13.0 kmh 30.36 in1028.1 mb - 0.00 in0.0 mm 0.00 in0.0 mm
04:40 AM 39.7°F4.3°C 37.6°F3.1°C 92% 3.5 mph NE5.6 kmh NE 3.5 mph5.6 kmh 30.36 in1028.1 mb - 0.00 in0.0 mm 0.00 in0.0 mm
04:50 AM 39.5°F4.2°C 37.1°F2.8°C 91% 2.3 mph NE3.7 kmh NE 3.5 mph5.6 kmh 30.36 in1028.1 mb - 0.00 in0.0 mm 0.00 in0.0 mm
05:00 AM 39.5°F4.2°C 37.1°F2.8°C 91% Calm Calm 3.5 mph5.6 kmh 30.37 in1028.4 mb - 0.01 in0.3 mm 0.01 in0.3 mm
05:10 AM 39.5°F4.2°C 37.1°F2.8°C 91% Calm Calm -- 30.37 in1028.4 mb - 0.00 in0.0 mm 0.01 in0.3 mm
05:20 AM 39.3°F4.1°C 36.9°F2.7°C 91% Calm Calm -- 30.38 in1028.8 mb - 0.00 in0.0 mm 0.01 in0.3 mm
05:30 AM 39.1°F3.9°C 36.7°F2.6°C 91% Calm Calm -- 30.38 in1028.8 mb - 0.00 in0.0 mm 0.01 in0.3 mm
05:40 AM 39.1°F3.9°C 36.7°F2.6°C 91% Calm Calm -- 30.38 in1028.8 mb - 0.00 in0.0 mm 0.01 in0.3 mm
05:50 AM 39.0°F3.9°C 36.6°F2.6°C 91% Calm Calm -- 30.38 in1028.8 mb - 0.00 in0.0 mm 0.01 in0.3 mm
06:00 AM 39.3°F4.1°C 36.6°F2.6°C 90% 1.1 mph NE1.8 kmh NE 3.5 mph5.6 kmh 30.38 in1028.8 mb - 0.00 in0.0 mm 0.01 in0.3 mm
06:10 AM 39.5°F4.2°C 36.9°F2.7°C 90% 4.6 mph NNE7.4 kmh NNE 4.6 mph7.4 kmh 30.38 in1028.8 mb - 0.00 in0.0 mm 0.01 in0.3 mm
06:20 AM 39.9°F4.4°C 36.9°F2.7°C 89% 2.3 mph E3.7 kmh E 5.8 mph9.3 kmh 30.38 in1028.8 mb - 0.00 in0.0 mm 0.01 in0.3 mm
06:30 AM 39.8°F4.3°C 36.5°F2.5°C 88% 3.5 mph ENE5.6 kmh ENE 4.6 mph7.4 kmh 30.38 in1028.8 mb - 0.00 in0.0 mm 0.01 in0.3 mm
06:40 AM 39.8°F4.3°C 36.6°F2.6°C 88% 4.6 mph ENE7.4 kmh ENE 4.6 mph7.4 kmh 30.38 in1028.8 mb - 0.00 in0.0 mm 0.01 in0.3 mm
06:50 AM 40.0°F4.4°C 36.4°F2.4°C 87% 4.6 mph ENE7.4 kmh ENE 5.8 mph9.3 kmh 30.39 in1029.1 mb - 0.00 in0.0 mm 0.01 in0.3 mm
07:00 AM 39.8°F4.3°C 36.2°F2.3°C 87% Calm Calm -- 30.39 in1029.1 mb - 0.00 in0.0 mm 0.01 in0.3 mm
07:10 AM 39.3°F4.1°C 35.8°F2.1°C 87% 1.1 mph ENE1.8 kmh ENE 3.5 mph5.6 kmh 30.40 in1029.5 mb - 0.00 in0.0 mm 0.01 in0.3 mm
07:20 AM 39.3°F4.1°C 36.1°F2.3°C 88% 4.6 mph NNE7.4 kmh NNE 10.4 mph16.7 kmh 30.39 in1029.1 mb - 0.00 in0.0 mm 0.01 in0.3 mm
07:30 AM 40.3°F4.6°C 36.7°F2.6°C 87% 3.5 mph E5.6 kmh E 6.9 mph11.1 kmh 30.40 in1029.5 mb - 0.00 in0.0 mm 0.01 in0.3 mm
07:40 AM 40.8°F4.9°C 36.9°F2.7°C 86% 3.5 mph NE5.6 kmh NE 5.8 mph9.3 kmh 30.41 in1029.8 mb - 0.00 in0.0 mm 0.01 in0.3 mm
07:50 AM 41.3°F5.2°C 37.2°F2.9°C 85% 6.9 mph ENE11.1 kmh ENE 11.5 mph18.5 kmh 30.41 in1029.8 mb - 0.00 in0.0 mm 0.01 in0.3 mm
08:00 AM 41.5°F5.3°C 37.0°F2.8°C 84% 2.3 mph E3.7 kmh E 2.3 mph3.7 kmh 30.41 in1029.8 mb - 0.00 in0.0 mm 0.01 in0.3 mm
08:10 AM 41.3°F5.2°C 37.1°F2.8°C 85% 6.9 mph NE11.1 kmh NE 9.2 mph14.8 kmh 30.41 in1029.8 mb - 0.00 in0.0 mm 0.01 in0.3 mm
08:20 AM 41.5°F5.3°C 37.3°F2.9°C 85% 4.6 mph N7.4 kmh N 10.4 mph16.7 kmh 30.42 in1030.1 mb - 0.00 in0.0 mm 0.01 in0.3 mm
08:30 AM 41.6°F5.3°C 37.5°F3.1°C 85% 1.1 mph NE1.8 kmh NE 4.6 mph7.4 kmh 30.43 in1030.5 mb - 0.02 in0.5 mm 0.02 in0.5 mm
08:50 AM 41.2°F5.1°C 37.4°F3.0°C 86% Calm Calm 1.1 mph1.8 kmh 30.44 in1030.8 mb - 0.00 in0.0 mm 0.02 in0.5 mm
09:00 AM 41.1°F5.1°C 37.5°F3.1°C 87% 3.5 mph NNE5.6 kmh NNE 5.8 mph9.3 kmh 30.44 in1030.8 mb - 0.00 in0.0 mm 0.02 in0.5 mm
09:10 AM 41.5°F5.3°C 37.6°F3.1°C 86% Calm Calm 1.1 mph1.8 kmh 30.44 in1030.8 mb - 0.00 in0.0 mm 0.02 in0.5 mm
09:20 AM 41.5°F5.3°C 37.6°F3.1°C 86% 1.1 mph NNE1.8 kmh NNE 2.3 mph3.7 kmh 30.44 in1030.8 mb - 0.00 in0.0 mm 0.02 in0.5 mm
09:30 AM 41.6°F5.3°C 37.7°F3.2°C 86% 5.8 mph E9.3 kmh E 10.4 mph16.7 kmh 30.45 in1031.2 mb - 0.00 in0.0 mm 0.02 in0.5 mm
09:40 AM 41.7°F5.4°C 37.8°F3.2°C 86% 3.5 mph ENE5.6 kmh ENE 5.8 mph9.3 kmh 30.46 in1031.5 mb - 0.00 in0.0 mm 0.02 in0.5 mm
09:50 AM 41.9°F5.5°C 37.7°F3.2°C 85% Calm Calm 2.3 mph3.7 kmh 30.46 in1031.5 mb - 0.00 in0.0 mm 0.02 in0.5 mm
10:00 AM 42.0°F5.6°C 37.8°F3.2°C 85% Calm Calm 1.1 mph1.8 kmh 30.46 in1031.5 mb - 0.00 in0.0 mm 0.02 in0.5 mm
10:10 AM 42.5°F5.8°C 38.3°F3.5°C 85% 2.3 mph ENE3.7 kmh ENE 8.1 mph13.0 kmh 30.47 in1031.8 mb - 0.00 in0.0 mm 0.02 in0.5 mm
10:20 AM 42.8°F6.0°C 38.3°F3.5°C 84% 1.1 mph NE1.8 kmh NE 2.3 mph3.7 kmh 30.48 in1032.2 mb - 0.00 in0.0 mm 0.02 in0.5 mm
10:30 AM 43.2°F6.2°C 38.4°F3.6°C 83% 5.8 mph N9.3 kmh N 8.1 mph13.0 kmh 30.48 in1032.2 mb - 0.00 in0.0 mm 0.02 in0.5 mm
10:40 AM 43.7°F6.5°C 38.9°F3.8°C 83% 3.5 mph NE5.6 kmh NE 3.5 mph5.6 kmh 30.49 in1032.5 mb - 0.00 in0.0 mm 0.02 in0.5 mm
10:50 AM 44.2°F6.8°C 38.7°F3.7°C 81% 2.3 mph NNE3.7 kmh NNE 8.1 mph13.0 kmh 30.50 in1032.8 mb - 0.00 in0.0 mm 0.02 in0.5 mm
11:00 AM 44.7°F7.1°C 38.9°F3.8°C 80% 5.8 mph NE9.3 kmh NE 6.9 mph11.1 kmh 30.49 in1032.5 mb - 0.00 in0.0 mm 0.02 in0.5 mm
11:10 AM 45.1°F7.3°C 39.3°F4.1°C 80% 5.8 mph ENE9.3 kmh ENE 9.2 mph14.8 kmh 30.49 in1032.5 mb - 0.00 in0.0 mm 0.02 in0.5 mm
11:20 AM 45.2°F7.3°C 38.8°F3.8°C 78% 5.8 mph NE9.3 kmh NE 11.5 mph18.5 kmh 30.50 in1032.8 mb - 0.00 in0.0 mm 0.02 in0.5 mm
11:30 AM 45.4°F7.4°C 38.9°F3.8°C 78% 6.9 mph NNE11.1 kmh NNE 8.1 mph13.0 kmh 30.51 in1033.2 mb - 0.00 in0.0 mm 0.02 in0.5 mm
11:40 AM 45.6°F7.6°C 38.8°F3.8°C 77% 4.6 mph NE7.4 kmh NE 6.9 mph11.1 kmh 30.51 in1033.2 mb - 0.00 in0.0 mm 0.02 in0.5 mm
11:50 AM 45.7°F7.6°C 39.2°F4.0°C 78% 1.1 mph N1.8 kmh N 2.3 mph3.7 kmh 30.51 in1033.2 mb - 0.00 in0.0 mm 0.02 in0.5 mm
12:00 PM 45.8°F7.7°C 39.4°F4.1°C 78% 11.5 mph NE18.5 kmh NE 13.8 mph22.2 kmh 30.51 in1033.2 mb - 0.00 in0.0 mm 0.02 in0.5 mm
12:10 PM 45.5°F7.5°C 39.4°F4.1°C 79% 16.1 mph NE25.9 kmh NE 23.0 mph37.0 kmh 30.51 in1033.2 mb - 0.00 in0.0 mm 0.02 in0.5 mm
12:20 PM 45.9°F7.7°C 39.8°F4.3°C 79% 11.5 mph NE18.5 kmh NE 13.8 mph22.2 kmh 30.51 in1033.2 mb - 0.00 in0.0 mm 0.02 in0.5 mm
12:30 PM 46.2°F7.9°C 39.7°F4.3°C 78% 11.5 mph NE18.5 kmh NE 16.1 mph25.9 kmh 30.50 in1032.8 mb - 0.00 in0.0 mm 0.02 in0.5 mm
12:40 PM 46.6°F8.1°C 39.4°F4.1°C 76% 13.8 mph NE22.2 kmh NE 16.1 mph25.9 kmh 30.50 in1032.8 mb - 0.00 in0.0 mm 0.02 in0.5 mm
12:50 PM 46.9°F8.3°C 39.7°F4.3°C 76% 10.4 mph NE16.7 kmh NE 13.8 mph22.2 kmh 30.50 in1032.8 mb - 0.00 in0.0 mm 0.02 in0.5 mm
01:00 PM 46.6°F8.1°C 39.4°F4.1°C 76% 9.2 mph N14.8 kmh N 12.7 mph20.4 kmh 30.50 in1032.8 mb - 0.00 in0.0 mm 0.02 in0.5 mm
01:10 PM 46.1°F7.8°C 39.6°F4.2°C 78% 10.4 mph NE16.7 kmh NE 16.1 mph25.9 kmh 30.50 in1032.8 mb - 0.00 in0.0 mm 0.02 in0.5 mm
01:20 PM 46.1°F7.8°C 39.9°F4.4°C 79% 8.1 mph NE13.0 kmh NE 11.5 mph18.5 kmh 30.49 in1032.5 mb - 0.00 in0.0 mm 0.02 in0.5 mm
01:30 PM 46.3°F7.9°C 39.8°F4.3°C 78% 9.2 mph NE14.8 kmh NE 11.5 mph18.5 kmh 30.49 in1032.5 mb - 0.00 in0.0 mm 0.02 in0.5 mm
01:40 PM 46.7°F8.2°C 40.2°F4.6°C 78% 6.9 mph NE11.1 kmh NE 8.1 mph13.0 kmh 30.49 in1032.5 mb - 0.00 in0.0 mm 0.02 in0.5 mm
01:50 PM 47.0°F8.3°C 40.5°F4.7°C 78% 6.9 mph ENE11.1 kmh ENE 10.4 mph16.7 kmh 30.48 in1032.2 mb - 0.00 in0.0 mm 0.02 in0.5 mm
02:00 PM 47.2°F8.4°C 40.0°F4.4°C 76% 6.9 mph NE11.1 kmh NE 9.2 mph14.8 kmh 30.48 in1032.2 mb - 0.00 in0.0 mm 0.02 in0.5 mm
02:10 PM 47.4°F8.6°C 39.9°F4.4°C 75% 8.1 mph ENE13.0 kmh ENE 11.5 mph18.5 kmh 30.48 in1032.2 mb - 0.00 in0.0 mm 0.02 in0.5 mm
02:20 PM 47.5°F8.6°C 40.3°F4.6°C 76% 10.4 mph ENE16.7 kmh ENE 16.1 mph25.9 kmh 30.47 in1031.8 mb - 0.00 in0.0 mm 0.02 in0.5 mm
02:30 PM 47.6°F8.7°C 39.7°F4.3°C 74% 10.4 mph NE16.7 kmh NE 12.7 mph20.4 kmh 30.47 in1031.8 mb - 0.00 in0.0 mm 0.02 in0.5 mm
02:40 PM 47.9°F8.8°C 39.7°F4.3°C 73% 6.9 mph NE11.1 kmh NE 9.2 mph14.8 kmh 30.46 in1031.5 mb - 0.00 in0.0 mm 0.02 in0.5 mm
02:50 PM 47.9°F8.8°C 40.0°F4.4°C 74% 6.9 mph NNE11.1 kmh NNE 6.9 mph11.1 kmh 30.46 in1031.5 mb - 0.00 in0.0 mm 0.02 in0.5 mm
03:00 PM 47.2°F8.4°C 40.7°F4.8°C 78% 6.9 mph N11.1 kmh N 9.2 mph14.8 kmh 30.47 in1031.8 mb - 0.00 in0.0 mm 0.02 in0.5 mm
03:10 PM 46.7°F8.2°C 41.2°F5.1°C 81% 5.8 mph NE9.3 kmh NE 6.9 mph11.1 kmh 30.48 in1032.2 mb - 0.01 in0.3 mm 0.03 in0.8 mm
03:20 PM 45.9°F7.7°C 40.7°F4.8°C 82% 4.6 mph NE7.4 kmh NE 6.9 mph11.1 kmh 30.48 in1032.2 mb - 0.00 in0.0 mm 0.03 in0.8 mm
03:30 PM 45.5°F7.5°C 40.9°F4.9°C 84% 1.1 mph NNE1.8 kmh NNE 3.5 mph5.6 kmh 30.48 in1032.2 mb - 0.00 in0.0 mm 0.03 in0.8 mm
03:40 PM 45.1°F7.3°C 40.9°F4.9°C 85% Calm Calm 1.1 mph1.8 kmh 30.48 in1032.2 mb - 0.00 in0.0 mm 0.03 in0.8 mm
03:50 PM 46.0°F7.8°C 41.7°F5.4°C 85% 1.1 mph NW1.8 kmh NW 6.9 mph11.1 kmh 30.48 in1032.2 mb - 0.00 in0.0 mm 0.03 in0.8 mm
04:00 PM 46.4°F8.0°C 41.2°F5.1°C 82% 5.8 mph N9.3 kmh N 11.5 mph18.5 kmh 30.49 in1032.5 mb - 0.00 in0.0 mm 0.03 in0.8 mm
04:10 PM 46.6°F8.1°C 40.5°F4.7°C 79% 13.8 mph NNE22.2 kmh NNE 18.4 mph29.6 kmh 30.48 in1032.2 mb - 0.00 in0.0 mm 0.03 in0.8 mm
04:20 PM 46.9°F8.3°C 40.0°F4.4°C 77% 5.8 mph NE9.3 kmh NE 8.1 mph13.0 kmh 30.49 in1032.5 mb - 0.00 in0.0 mm 0.03 in0.8 mm
04:30 PM 46.9°F8.3°C 39.7°F4.3°C 76% 6.9 mph NNE11.1 kmh NNE 9.2 mph14.8 kmh 30.49 in1032.5 mb - 0.00 in0.0 mm 0.03 in0.8 mm
04:40 PM 46.7°F8.2°C 39.5°F4.2°C 76% 8.1 mph NNE13.0 kmh NNE 9.2 mph14.8 kmh 30.49 in1032.5 mb - 0.00 in0.0 mm 0.03 in0.8 mm
04:50 PM 46.5°F8.1°C 39.3°F4.1°C 76% 5.8 mph NNE9.3 kmh NNE 8.1 mph13.0 kmh 30.49 in1032.5 mb - 0.00 in0.0 mm 0.03 in0.8 mm
05:00 PM 46.4°F8.0°C 39.6°F4.2°C 77% Calm Calm -- 30.49 in1032.5 mb - 0.00 in0.0 mm 0.03 in0.8 mm
05:10 PM 46.1°F7.8°C 39.9°F4.4°C 79% 3.5 mph N5.6 kmh N 8.1 mph13.0 kmh 30.49 in1032.5 mb - 0.00 in0.0 mm 0.03 in0.8 mm
05:20 PM 46.0°F7.8°C 39.2°F4.0°C 77% 4.6 mph NE7.4 kmh NE 11.5 mph18.5 kmh 30.49 in1032.5 mb - 0.00 in0.0 mm 0.03 in0.8 mm
05:30 PM 46.1°F7.8°C 39.0°F3.9°C 76% 5.8 mph NNE9.3 kmh NNE 6.9 mph11.1 kmh 30.49 in1032.5 mb - 0.00 in0.0 mm 0.03 in0.8 mm
05:40 PM 46.1°F7.8°C 38.9°F3.8°C 76% 4.6 mph NE7.4 kmh NE 5.8 mph9.3 kmh 30.49 in1032.5 mb - 0.00 in0.0 mm 0.03 in0.8 mm
05:50 PM 46.0°F7.8°C 38.8°F3.8°C 76% 3.5 mph N5.6 kmh N 11.5 mph18.5 kmh 30.49 in1032.5 mb - 0.00 in0.0 mm 0.03 in0.8 mm
06:00 PM 45.7°F7.6°C 38.6°F3.7°C 76% 5.8 mph N9.3 kmh N 8.1 mph13.0 kmh 30.49 in1032.5 mb - 0.00 in0.0 mm 0.03 in0.8 mm
06:10 PM 45.6°F7.6°C 38.8°F3.8°C 77% 3.5 mph N5.6 kmh N 3.5 mph5.6 kmh 30.49 in1032.5 mb - 0.00 in0.0 mm 0.03 in0.8 mm
06:20 PM 45.4°F7.4°C 38.6°F3.7°C 77% 2.3 mph NE3.7 kmh NE 4.6 mph7.4 kmh 30.49 in1032.5 mb - 0.00 in0.0 mm 0.03 in0.8 mm
06:30 PM 45.1°F7.3°C 38.6°F3.7°C 78% 3.5 mph NE5.6 kmh NE 4.6 mph7.4 kmh 30.50 in1032.8 mb - 0.00 in0.0 mm 0.03 in0.8 mm
06:40 PM 44.8°F7.1°C 38.7°F3.7°C 79% Calm Calm -- 30.50 in1032.8 mb - 0.00 in0.0 mm 0.03 in0.8 mm
06:50 PM 44.3°F6.8°C 38.2°F3.4°C 79% 2.3 mph NE3.7 kmh NE 3.5 mph5.6 kmh 30.50 in1032.8 mb - 0.00 in0.0 mm 0.03 in0.8 mm
07:00 PM 43.8°F6.6°C 38.0°F3.3°C 80% Calm Calm -- 30.51 in1033.2 mb - 0.00 in0.0 mm 0.03 in0.8 mm
07:10 PM 43.4°F6.3°C 38.0°F3.3°C 81% Calm Calm -- 30.52 in1033.5 mb - 0.00 in0.0 mm 0.03 in0.8 mm
07:20 PM 43.1°F6.2°C 37.7°F3.2°C 81% Calm Calm -- 30.52 in1033.5 mb - 0.00 in0.0 mm 0.03 in0.8 mm
07:30 PM 43.0°F6.1°C 37.9°F3.3°C 82% Calm Calm -- 30.53 in1033.9 mb - 0.00 in0.0 mm 0.03 in0.8 mm
07:40 PM 43.1°F6.2°C 38.0°F3.3°C 82% Calm Calm -- 30.53 in1033.9 mb - 0.00 in0.0 mm 0.03 in0.8 mm
07:50 PM 43.2°F6.2°C 38.1°F3.4°C 82% Calm Calm -- 30.53 in1033.9 mb - 0.00 in0.0 mm 0.03 in0.8 mm
08:00 PM 43.4°F6.3°C 38.3°F3.5°C 82% Calm Calm -- 30.53 in1033.9 mb - 0.00 in0.0 mm 0.03 in0.8 mm
08:10 PM 43.4°F6.3°C 38.3°F3.5°C 82% 3.5 mph NE5.6 kmh NE 4.6 mph7.4 kmh 30.54 in1034.2 mb - 0.00 in0.0 mm 0.03 in0.8 mm
08:20 PM 43.3°F6.3°C 38.2°F3.4°C 82% Calm Calm -- 30.54 in1034.2 mb - 0.00 in0.0 mm 0.03 in0.8 mm
08:30 PM 43.1°F6.2°C 38.0°F3.3°C 82% Calm Calm 1.1 mph1.8 kmh 30.55 in1034.5 mb - 0.00 in0.0 mm 0.03 in0.8 mm
08:40 PM 42.9°F6.1°C 37.8°F3.2°C 82% Calm Calm -- 30.55 in1034.5 mb - 0.00 in0.0 mm 0.03 in0.8 mm
08:50 PM 42.7°F5.9°C 37.6°F3.1°C 82% Calm Calm -- 30.56 in1034.9 mb - 0.00 in0.0 mm 0.03 in0.8 mm
09:00 PM 42.6°F5.9°C 37.8°F3.2°C 83% Calm Calm 1.1 mph1.8 kmh 30.55 in1034.5 mb - 0.00 in0.0 mm 0.03 in0.8 mm
09:10 PM 42.7°F5.9°C 38.2°F3.4°C 84% 3.5 mph NE5.6 kmh NE 4.6 mph7.4 kmh 30.56 in1034.9 mb - 0.00 in0.0 mm 0.03 in0.8 mm
09:20 PM 42.8°F6.0°C 38.3°F3.5°C 84% Calm Calm 1.1 mph1.8 kmh 30.56 in1034.9 mb - 0.00 in0.0 mm 0.03 in0.8 mm
09:30 PM 42.7°F5.9°C 38.5°F3.6°C 85% Calm Calm -- 30.56 in1034.9 mb - 0.00 in0.0 mm 0.03 in0.8 mm
09:40 PM 42.6°F5.9°C 38.4°F3.6°C 85% Calm Calm 1.1 mph1.8 kmh 30.56 in1034.9 mb - 0.00 in0.0 mm 0.03 in0.8 mm
09:50 PM 42.5°F5.8°C 38.6°F3.7°C 86% Calm Calm 2.3 mph3.7 kmh 30.56 in1034.9 mb - 0.00 in0.0 mm 0.03 in0.8 mm
10:00 PM 42.5°F5.8°C 38.6°F3.7°C 86% Calm Calm -- 30.57 in1035.2 mb - 0.00 in0.0 mm 0.03 in0.8 mm
10:10 PM 42.4°F5.8°C 38.5°F3.6°C 86% 3.5 mph NE5.6 kmh NE 6.9 mph11.1 kmh 30.57 in1035.2 mb - 0.00 in0.0 mm 0.03 in0.8 mm
10:20 PM 42.5°F5.8°C 38.6°F3.7°C 86% Calm Calm -- 30.57 in1035.2 mb - 0.00 in0.0 mm 0.03 in0.8 mm
10:30 PM 42.4°F5.8°C 38.2°F3.4°C 85% Calm Calm -- 30.56 in1034.9 mb - 0.00 in0.0 mm 0.03 in0.8 mm
10:40 PM 42.3°F5.7°C 38.1°F3.4°C 85% Calm Calm -- 30.57 in1035.2 mb - 0.00 in0.0 mm 0.03 in0.8 mm
10:50 PM 42.3°F5.7°C 38.1°F3.4°C 85% Calm Calm 1.1 mph1.8 kmh 30.57 in1035.2 mb - 0.00 in0.0 mm 0.03 in0.8 mm
11:00 PM 42.3°F5.7°C 38.1°F3.4°C 85% 1.1 mph NE1.8 kmh NE 3.5 mph5.6 kmh 30.57 in1035.2 mb - 0.00 in0.0 mm 0.03 in0.8 mm
11:10 PM 42.2°F5.7°C 38.0°F3.3°C 85% Calm Calm -- 30.57 in1035.2 mb - 0.00 in0.0 mm 0.03 in0.8 mm
11:20 PM 42.1°F5.6°C 37.9°F3.3°C 85% Calm Calm 2.3 mph3.7 kmh 30.57 in1035.2 mb - 0.00 in0.0 mm 0.03 in0.8 mm
11:30 PM 41.9°F5.5°C 37.7°F3.2°C 85% Calm Calm 1.1 mph1.8 kmh 30.58 in1035.6 mb - 0.00 in0.0 mm 0.03 in0.8 mm
11:40 PM 41.9°F5.5°C 37.7°F3.2°C 85% Calm Calm -- 30.58 in1035.6 mb - 0.00 in0.0 mm 0.03 in0.8 mm
11:50 PM 42.0°F5.6°C 38.1°F3.4°C 86% Calm Calm 1.1 mph1.8 kmh 30.59 in1035.9 mb - 0.00 in0.0 mm 0.03 in0.8 mm